createdAt,value
2023-09-23T00:00:10.574Z,979.46
2023-09-23T00:01:10.542Z,979.55
2023-09-23T00:02:10.629Z,979.58
2023-09-23T00:03:10.622Z,979.61
2023-09-23T00:04:10.672Z,979.55
2023-09-23T00:05:10.696Z,979.63
2023-09-23T00:06:10.478Z,979.58
2023-09-23T00:07:10.468Z,979.59
2023-09-23T00:08:10.479Z,979.61
2023-09-23T00:09:10.441Z,979.60
2023-09-23T00:10:10.434Z,979.55
2023-09-23T00:11:10.461Z,979.59
2023-09-23T00:12:10.407Z,979.59
2023-09-23T00:13:10.429Z,979.57
2023-09-23T00:14:10.422Z,979.59
2023-09-23T00:15:10.382Z,979.55
2023-09-23T00:16:10.403Z,979.63
2023-09-23T00:17:10.387Z,979.64
2023-09-23T00:18:10.406Z,979.67
2023-09-23T00:19:10.364Z,979.59
2023-09-23T00:20:10.380Z,979.71
2023-09-23T00:21:10.310Z,979.67
2023-09-23T00:22:10.298Z,979.69
2023-09-23T00:23:10.345Z,979.77
2023-09-23T00:24:10.281Z,979.76
2023-09-23T00:25:10.271Z,979.69
2023-09-23T00:26:10.279Z,979.67
2023-09-23T00:27:10.250Z,979.73
2023-09-23T00:28:10.232Z,979.75
2023-09-23T00:29:10.322Z,979.75
2023-09-23T00:30:10.212Z,979.76
2023-09-23T00:31:10.275Z,979.76
2023-09-23T00:32:10.226Z,979.71
2023-09-23T00:33:10.186Z,979.71
2023-09-23T00:34:10.178Z,979.71
2023-09-23T00:35:10.200Z,979.72
2023-09-23T00:36:10.169Z,979.72
2023-09-23T00:37:10.148Z,979.74
2023-09-23T00:38:10.177Z,979.72
2023-09-23T00:39:10.121Z,979.69
2023-09-23T00:40:10.102Z,979.68
2023-09-23T00:41:10.254Z,979.73
2023-09-23T00:42:10.086Z,979.70
2023-09-23T00:43:10.073Z,979.71
2023-09-23T00:44:10.081Z,979.78
2023-09-23T00:45:10.044Z,979.71
2023-09-23T00:46:10.098Z,979.71
2023-09-23T00:47:10.055Z,979.63
2023-09-23T00:48:10.058Z,979.58
2023-09-23T00:49:10.030Z,979.66
2023-09-23T00:50:10.056Z,979.67
2023-09-23T00:51:09.998Z,979.62
2023-09-23T00:52:09.980Z,979.63
2023-09-23T00:53:10.024Z,979.60
2023-09-23T00:54:09.976Z,979.59
2023-09-23T00:55:09.962Z,979.58
2023-09-23T00:56:10.199Z,979.52
2023-09-23T00:57:09.939Z,979.60
2023-09-23T00:58:09.909Z,979.66
2023-09-23T00:59:09.955Z,979.64
2023-09-23T01:00:09.892Z,979.61
2023-09-23T01:01:10.047Z,979.59
2023-09-23T01:02:09.953Z,979.67
2023-09-23T01:03:10.015Z,979.64
2023-09-23T01:04:09.996Z,979.61
2023-09-23T01:05:09.873Z,979.59
2023-09-23T01:06:09.861Z,979.57
2023-09-23T01:07:09.833Z,979.54
2023-09-23T01:08:09.832Z,979.60
2023-09-23T01:09:09.814Z,979.55
2023-09-23T01:10:09.809Z,979.60
2023-09-23T01:11:09.819Z,979.60
2023-09-23T01:12:09.752Z,979.64
2023-09-23T01:13:11.073Z,979.68
2023-09-23T01:14:09.797Z,979.68
2023-09-23T01:15:09.736Z,979.69
2023-09-23T01:16:09.772Z,979.72
2023-09-23T01:17:09.754Z,979.73
2023-09-23T01:18:09.780Z,979.77
2023-09-23T01:19:09.698Z,979.79
2023-09-23T01:20:09.725Z,979.84
2023-09-23T01:21:09.702Z,979.85
2023-09-23T01:22:09.693Z,979.88
2023-09-23T01:23:09.700Z,979.84
2023-09-23T01:24:09.676Z,979.88
2023-09-23T01:25:09.654Z,979.86
2023-09-23T01:26:09.694Z,979.84
2023-09-23T01:27:09.622Z,979.86
2023-09-23T01:28:09.621Z,979.87
2023-09-23T01:29:09.631Z,979.84
2023-09-23T01:30:09.628Z,979.86
2023-09-23T01:31:09.644Z,979.85
2023-09-23T01:32:09.593Z,979.88
2023-09-23T01:33:09.643Z,979.88
2023-09-23T01:34:09.547Z,979.90
2023-09-23T01:35:09.572Z,979.91
2023-09-23T01:36:09.546Z,979.91
2023-09-23T01:37:09.513Z,979.93
2023-09-23T01:38:09.552Z,979.91
2023-09-23T01:39:09.481Z,980.02
2023-09-23T01:40:09.473Z,980.00
2023-09-23T01:41:09.520Z,979.97
2023-09-23T01:42:09.451Z,980.00
2023-09-23T01:43:09.436Z,980.04
2023-09-23T01:44:09.453Z,980.06
2023-09-23T01:45:09.417Z,980.13
2023-09-23T01:46:09.433Z,980.07
2023-09-23T01:47:09.519Z,980.14
2023-09-23T01:48:09.484Z,980.12
2023-09-23T01:49:09.382Z,980.16
2023-09-23T01:50:09.435Z,980.16
2023-09-23T01:51:09.386Z,980.18
2023-09-23T01:52:09.359Z,980.11
2023-09-23T01:53:09.412Z,980.11
2023-09-23T01:54:09.341Z,980.20
2023-09-23T01:55:09.435Z,980.22
2023-09-23T01:56:09.336Z,980.16
2023-09-23T01:57:09.306Z,980.13
2023-09-23T01:58:09.300Z,980.04
2023-09-23T01:59:09.305Z,979.97
2023-09-23T02:00:09.277Z,979.97
2023-09-23T02:01:09.318Z,980.10
2023-09-23T02:02:09.338Z,980.12
2023-09-23T02:03:09.414Z,980.02
2023-09-23T02:04:09.234Z,979.96
2023-09-23T02:05:09.313Z,980.11
2023-09-23T02:06:09.227Z,980.17
2023-09-23T02:07:09.197Z,980.20
2023-09-23T02:08:09.286Z,980.23
2023-09-23T02:09:09.194Z,980.23
2023-09-23T02:10:09.167Z,980.29
2023-09-23T02:11:09.226Z,980.29
2023-09-23T02:12:09.145Z,980.30
2023-09-23T02:13:09.142Z,980.33
2023-09-23T02:14:09.193Z,980.32
2023-09-23T02:15:09.116Z,980.41
2023-09-23T02:16:09.126Z,980.40
2023-09-23T02:17:09.127Z,980.35
2023-09-23T02:18:09.114Z,980.41
2023-09-23T02:19:09.061Z,980.34
2023-09-23T02:20:09.129Z,980.43
2023-09-23T02:21:09.049Z,980.47
2023-09-23T02:22:09.032Z,980.51
2023-09-23T02:23:09.037Z,980.53
2023-09-23T02:24:09.003Z,980.51
2023-09-23T02:25:09.009Z,980.48
2023-09-23T02:26:09.056Z,980.47
2023-09-23T02:27:09.031Z,980.54
2023-09-23T02:28:08.974Z,980.52
2023-09-23T02:29:09.015Z,980.47
2023-09-23T02:30:08.954Z,980.44
2023-09-23T02:31:09.020Z,980.49
2023-09-23T02:32:08.960Z,980.49
2023-09-23T02:33:08.957Z,980.45
2023-09-23T02:34:08.940Z,980.45
2023-09-23T02:35:08.948Z,980.48
2023-09-23T02:36:08.885Z,980.52
2023-09-23T02:37:08.883Z,980.55
2023-09-23T02:38:08.882Z,980.60
2023-09-23T02:39:08.875Z,980.59
2023-09-23T02:40:08.857Z,980.58
2023-09-23T02:41:08.940Z,980.64
2023-09-23T02:42:08.825Z,980.64
2023-09-23T02:43:08.827Z,980.59
2023-09-23T02:44:08.866Z,980.68
2023-09-23T02:45:08.819Z,980.70
2023-09-23T02:46:08.833Z,980.73
2023-09-23T02:47:08.819Z,980.72
2023-09-23T02:48:08.894Z,980.69
2023-09-23T02:49:08.764Z,980.76
2023-09-23T02:50:08.782Z,980.75
2023-09-23T02:51:08.738Z,980.80
2023-09-23T02:52:08.733Z,980.83
2023-09-23T02:53:08.746Z,980.85
2023-09-23T02:54:08.700Z,980.84
2023-09-23T02:55:08.711Z,980.87
2023-09-23T02:56:08.749Z,980.90
2023-09-23T02:57:08.707Z,980.92
2023-09-23T02:58:08.650Z,980.94
2023-09-23T02:59:08.691Z,980.93
2023-09-23T03:00:08.625Z,980.96
2023-09-23T03:01:08.630Z,980.95
2023-09-23T03:02:08.748Z,981.00
2023-09-23T03:03:08.733Z,980.94
2023-09-23T03:04:08.685Z,980.97
2023-09-23T03:05:08.743Z,980.96
2023-09-23T03:06:08.617Z,981.01
2023-09-23T03:07:08.559Z,981.01
2023-09-23T03:08:08.713Z,981.07
2023-09-23T03:09:08.563Z,981.08
2023-09-23T03:10:08.518Z,981.03
2023-09-23T03:11:08.593Z,981.12
2023-09-23T03:12:08.516Z,981.07
2023-09-23T03:13:08.805Z,981.07
2023-09-23T03:14:08.527Z,980.99
2023-09-23T03:15:08.506Z,981.00
2023-09-23T03:16:08.485Z,981.01
2023-09-23T03:17:08.518Z,981.11
2023-09-23T03:18:08.527Z,981.08
2023-09-23T03:19:08.458Z,981.05
2023-09-23T03:20:08.470Z,981.16
2023-09-23T03:21:08.410Z,981.10
2023-09-23T03:22:08.399Z,981.15
2023-09-23T03:23:08.432Z,981.18
2023-09-23T03:24:08.378Z,981.17
2023-09-23T03:25:08.380Z,981.19
2023-09-23T03:26:08.384Z,981.20
2023-09-23T03:27:08.376Z,981.17
2023-09-23T03:28:08.338Z,981.12
2023-09-23T03:29:08.344Z,981.23
2023-09-23T03:30:08.304Z,981.20
2023-09-23T03:31:08.302Z,981.19
2023-09-23T03:32:08.325Z,981.18
2023-09-23T03:33:08.376Z,981.20
2023-09-23T03:34:08.267Z,981.30
2023-09-23T03:35:08.313Z,981.29
2023-09-23T03:36:08.241Z,981.36
2023-09-23T03:37:10.751Z,981.33
2023-09-23T03:38:08.251Z,981.34
2023-09-23T03:39:08.213Z,981.39
2023-09-23T03:40:08.192Z,981.42
2023-09-23T03:41:08.203Z,981.37
2023-09-23T03:42:08.173Z,981.40
2023-09-23T03:43:08.172Z,981.43
2023-09-23T03:44:08.170Z,981.48
2023-09-23T03:45:08.160Z,981.50
2023-09-23T03:46:08.189Z,981.45
2023-09-23T03:47:08.184Z,981.41
2023-09-23T03:48:08.112Z,981.42
2023-09-23T03:49:08.103Z,981.44
2023-09-23T03:50:08.128Z,981.47
2023-09-23T03:51:08.085Z,981.42
2023-09-23T03:52:08.073Z,981.44
2023-09-23T03:53:08.101Z,981.45
2023-09-23T03:54:08.058Z,981.47
2023-09-23T03:55:08.034Z,981.46
2023-09-23T03:56:08.050Z,981.50
2023-09-23T03:57:08.016Z,981.48
2023-09-23T03:58:08.017Z,981.49
2023-09-23T03:59:08.024Z,981.49
2023-09-23T04:00:08.007Z,981.49
2023-09-23T04:01:08.000Z,981.38
2023-09-23T04:02:07.991Z,981.47
2023-09-23T04:03:08.005Z,981.47
2023-09-23T04:04:08.025Z,981.47
2023-09-23T04:05:08.003Z,981.49
2023-09-23T04:06:07.909Z,981.41
2023-09-23T04:07:07.903Z,981.49
2023-09-23T04:08:07.915Z,981.44
2023-09-23T04:09:07.883Z,981.53
2023-09-23T04:10:07.879Z,981.43
2023-09-23T04:11:07.923Z,981.50
2023-09-23T04:12:07.915Z,981.49
2023-09-23T04:13:07.837Z,981.53
2023-09-23T04:14:07.859Z,981.56
2023-09-23T04:15:07.822Z,981.52
2023-09-23T04:16:07.865Z,981.57
2023-09-23T04:17:07.865Z,981.52
2023-09-23T04:18:07.836Z,981.56
2023-09-23T04:19:07.792Z,981.51
2023-09-23T04:20:07.832Z,981.56
2023-09-23T04:21:07.784Z,981.51
2023-09-23T04:22:07.752Z,981.49
2023-09-23T04:23:07.850Z,981.56
2023-09-23T04:24:07.731Z,981.50
2023-09-23T04:25:07.732Z,981.47
2023-09-23T04:26:07.721Z,981.54
2023-09-23T04:27:07.708Z,981.56
2023-09-23T04:28:07.708Z,981.51
2023-09-23T04:29:07.718Z,981.47
2023-09-23T04:30:07.688Z,981.54
2023-09-23T04:31:07.663Z,981.58
2023-09-23T04:32:07.797Z,981.53
2023-09-23T04:33:07.760Z,981.54
2023-09-23T04:34:07.633Z,981.56
2023-09-23T04:35:07.645Z,981.57
2023-09-23T04:36:07.606Z,981.58
2023-09-23T04:37:07.645Z,981.60
2023-09-23T04:38:07.622Z,981.60
2023-09-23T04:39:07.580Z,981.61
2023-09-23T04:40:07.637Z,981.61
2023-09-23T04:41:07.591Z,981.62
2023-09-23T04:42:07.542Z,981.66
2023-09-23T04:43:07.529Z,981.69
2023-09-23T04:44:07.551Z,981.69
2023-09-23T04:45:07.534Z,981.65
2023-09-23T04:46:07.582Z,981.71
2023-09-23T04:47:07.528Z,981.68
2023-09-23T04:48:07.521Z,981.63
2023-09-23T04:49:07.495Z,981.65
2023-09-23T04:50:07.509Z,981.71
2023-09-23T04:51:07.445Z,981.67
2023-09-23T04:52:07.433Z,981.67
2023-09-23T04:53:07.447Z,981.69
2023-09-23T04:54:07.416Z,981.68
2023-09-23T04:55:07.407Z,981.71
2023-09-23T04:56:07.446Z,981.71
2023-09-23T04:57:07.389Z,981.70
2023-09-23T04:58:07.426Z,981.72
2023-09-23T04:59:07.369Z,981.73
2023-09-23T05:00:07.338Z,981.72
2023-09-23T05:01:07.328Z,981.74
2023-09-23T05:02:07.341Z,981.75
2023-09-23T05:03:07.391Z,981.78
2023-09-23T05:04:07.345Z,981.78
2023-09-23T05:05:07.369Z,981.80
2023-09-23T05:06:07.314Z,981.84
2023-09-23T05:07:07.276Z,981.87
2023-09-23T05:08:07.322Z,981.93
2023-09-23T05:09:07.264Z,981.92
2023-09-23T05:10:07.244Z,981.91
2023-09-23T05:11:07.272Z,981.82
2023-09-23T05:12:07.227Z,981.89
2023-09-23T05:13:07.210Z,981.94
2023-09-23T05:14:07.219Z,981.93
2023-09-23T05:15:07.196Z,981.99
2023-09-23T05:16:07.260Z,982.04
2023-09-23T05:17:07.259Z,981.99
2023-09-23T05:18:07.213Z,982.04
2023-09-23T05:19:07.219Z,982.06
2023-09-23T05:20:07.167Z,982.02
2023-09-23T05:21:07.134Z,982.09
2023-09-23T05:22:07.103Z,982.03
2023-09-23T05:23:07.194Z,982.08
2023-09-23T05:24:07.113Z,982.03
2023-09-23T05:25:07.077Z,982.08
2023-09-23T05:26:07.080Z,982.04
2023-09-23T05:27:07.057Z,982.06
2023-09-23T05:28:09.182Z,982.10
2023-09-23T05:29:07.056Z,982.13
2023-09-23T05:30:07.038Z,982.16
2023-09-23T05:31:07.072Z,982.13
2023-09-23T05:32:07.069Z,982.16
2023-09-23T05:33:07.078Z,982.23
2023-09-23T05:34:07.012Z,982.20
2023-09-23T05:35:07.045Z,982.18
2023-09-23T05:36:06.976Z,982.21
2023-09-23T05:37:06.976Z,982.21
2023-09-23T05:38:06.976Z,982.25
2023-09-23T05:39:06.973Z,982.18
2023-09-23T05:40:06.931Z,982.25
2023-09-23T05:41:06.952Z,982.27
2023-09-23T05:42:06.902Z,982.29
2023-09-23T05:43:06.903Z,982.24
2023-09-23T05:44:06.923Z,982.28
2023-09-23T05:45:06.898Z,982.31
2023-09-23T05:46:06.881Z,982.34
2023-09-23T05:47:06.995Z,982.37
2023-09-23T05:48:07.192Z,982.38
2023-09-23T05:49:06.832Z,982.46
2023-09-23T05:50:06.867Z,982.48
2023-09-23T05:51:06.863Z,982.46
2023-09-23T05:52:06.796Z,982.52
2023-09-23T05:53:06.855Z,982.52
2023-09-23T05:54:06.783Z,982.50
2023-09-23T05:55:06.779Z,982.55
2023-09-23T05:56:06.797Z,982.55
2023-09-23T05:57:06.748Z,982.50
2023-09-23T05:58:06.725Z,982.56
2023-09-23T05:59:06.777Z,982.60
2023-09-23T06:00:06.759Z,982.60
2023-09-23T06:01:06.756Z,982.57
2023-09-23T06:02:06.692Z,982.62
2023-09-23T06:03:06.768Z,982.67
2023-09-23T06:04:06.705Z,982.65
2023-09-23T06:05:06.697Z,982.70
2023-09-23T06:06:06.642Z,982.71
2023-09-23T06:07:06.631Z,982.74
2023-09-23T06:08:06.690Z,982.74
2023-09-23T06:09:06.610Z,982.75
2023-09-23T06:10:06.607Z,982.78
2023-09-23T06:11:06.687Z,982.79
2023-09-23T06:12:06.585Z,982.77
2023-09-23T06:13:06.573Z,982.81
2023-09-23T06:14:06.597Z,982.89
2023-09-23T06:15:06.665Z,982.88
2023-09-23T06:16:06.572Z,982.89
2023-09-23T06:17:06.600Z,982.81
2023-09-23T06:18:06.658Z,982.89
2023-09-23T06:19:08.142Z,982.91
2023-09-23T06:20:06.565Z,982.96
2023-09-23T06:21:06.730Z,982.93
2023-09-23T06:22:06.477Z,982.88
2023-09-23T06:23:06.532Z,983.02
2023-09-23T06:24:06.452Z,982.94
2023-09-23T06:25:06.472Z,982.96
2023-09-23T06:26:06.520Z,982.91
2023-09-23T06:27:06.413Z,982.98
2023-09-23T06:28:06.400Z,982.96
2023-09-23T06:29:06.435Z,982.96
2023-09-23T06:30:06.447Z,982.96
2023-09-23T06:31:06.403Z,983.03
2023-09-23T06:32:06.457Z,983.02
2023-09-23T06:33:06.368Z,983.02
2023-09-23T06:34:06.352Z,983.04
2023-09-23T06:35:06.391Z,983.07
2023-09-23T06:36:06.341Z,983.12
2023-09-23T06:37:06.315Z,983.08
2023-09-23T06:38:06.322Z,983.13
2023-09-23T06:39:06.308Z,983.17
2023-09-23T06:40:06.304Z,983.17
2023-09-23T06:41:06.332Z,983.19
2023-09-23T06:42:06.279Z,983.25
2023-09-23T06:43:06.276Z,983.21
2023-09-23T06:44:06.288Z,983.21
2023-09-23T06:45:06.243Z,983.20
2023-09-23T06:46:06.256Z,983.26
2023-09-23T06:47:06.256Z,983.17
2023-09-23T06:48:06.254Z,983.16
2023-09-23T06:49:06.194Z,983.24
2023-09-23T06:50:06.193Z,983.29
2023-09-23T06:51:06.174Z,983.21
2023-09-23T06:52:06.149Z,983.24
2023-09-23T06:53:06.156Z,983.27
2023-09-23T06:54:06.146Z,983.30
2023-09-23T06:55:06.132Z,983.27
2023-09-23T06:56:06.147Z,983.26
2023-09-23T06:57:06.091Z,983.28
2023-09-23T06:58:06.090Z,983.30
2023-09-23T06:59:06.176Z,983.35
2023-09-23T07:00:06.081Z,983.41
2023-09-23T07:01:06.062Z,983.45
2023-09-23T07:02:06.104Z,983.45
2023-09-23T07:03:06.269Z,983.49
2023-09-23T07:04:06.174Z,983.52
2023-09-23T07:05:06.068Z,983.47
2023-09-23T07:06:06.007Z,983.52
2023-09-23T07:07:06.034Z,983.54
2023-09-23T07:08:05.994Z,983.52
2023-09-23T07:09:05.980Z,983.55
2023-09-23T07:10:05.995Z,983.55
2023-09-23T07:11:05.986Z,983.57
2023-09-23T07:12:05.982Z,983.55
2023-09-23T07:13:05.934Z,983.59
2023-09-23T07:14:05.979Z,983.65
2023-09-23T07:15:05.921Z,983.62
2023-09-23T07:16:05.934Z,983.60
2023-09-23T07:17:05.933Z,983.67
2023-09-23T07:18:05.936Z,983.64
2023-09-23T07:19:05.881Z,983.62
2023-09-23T07:20:05.904Z,983.64
2023-09-23T07:21:05.849Z,983.61
2023-09-23T07:22:05.838Z,983.72
2023-09-23T07:23:05.852Z,983.69
2023-09-23T07:24:08.815Z,983.64
2023-09-23T07:25:06.810Z,983.63
2023-09-23T07:26:05.809Z,983.68
2023-09-23T07:27:05.816Z,983.71
2023-09-23T07:28:05.801Z,983.63
2023-09-23T07:29:05.808Z,983.63
2023-09-23T07:30:05.765Z,983.66
2023-09-23T07:31:05.795Z,983.68
2023-09-23T07:32:05.809Z,983.70
2023-09-23T07:33:05.746Z,983.74
2023-09-23T07:34:05.723Z,983.71
2023-09-23T07:35:05.748Z,983.73
2023-09-23T07:36:05.697Z,983.78
2023-09-23T07:37:05.675Z,983.79
2023-09-23T07:38:05.695Z,983.82
2023-09-23T07:39:05.675Z,983.79
2023-09-23T07:40:05.659Z,983.80
2023-09-23T07:41:05.645Z,983.82
2023-09-23T07:42:05.646Z,983.86
2023-09-23T07:43:05.634Z,983.82
2023-09-23T07:44:05.653Z,983.84
2023-09-23T07:45:05.581Z,983.87
2023-09-23T07:46:05.593Z,983.89
2023-09-23T07:47:05.610Z,983.94
2023-09-23T07:48:05.608Z,983.92
2023-09-23T07:49:05.775Z,983.97
2023-09-23T07:50:05.581Z,983.97
2023-09-23T07:51:05.532Z,983.96
2023-09-23T07:52:05.507Z,984.05
2023-09-23T07:53:05.493Z,984.06
2023-09-23T07:54:05.487Z,984.09
2023-09-23T07:55:05.466Z,984.07
2023-09-23T07:56:05.496Z,984.05
2023-09-23T07:57:05.454Z,984.07
2023-09-23T07:58:05.439Z,984.10
2023-09-23T07:59:05.454Z,984.13
2023-09-23T08:00:05.447Z,984.12
2023-09-23T08:01:05.434Z,984.14
2023-09-23T08:02:05.540Z,984.17
2023-09-23T08:03:05.468Z,984.18
2023-09-23T08:04:05.382Z,984.25
2023-09-23T08:05:05.498Z,984.23
2023-09-23T08:06:05.386Z,984.26
2023-09-23T08:07:05.348Z,984.30
2023-09-23T08:08:05.389Z,984.23
2023-09-23T08:09:05.325Z,984.30
2023-09-23T08:10:05.334Z,984.36
2023-09-23T08:11:05.321Z,984.37
2023-09-23T08:12:05.304Z,984.41
2023-09-23T08:13:05.305Z,984.38
2023-09-23T08:14:05.328Z,984.43
2023-09-23T08:15:05.276Z,984.37
2023-09-23T08:16:05.281Z,984.33
2023-09-23T08:17:05.364Z,984.42
2023-09-23T08:18:05.314Z,984.41
2023-09-23T08:19:05.246Z,984.48
2023-09-23T08:20:05.242Z,984.44
2023-09-23T08:21:05.199Z,984.43
2023-09-23T08:22:05.197Z,984.51
2023-09-23T08:23:05.229Z,984.51
2023-09-23T08:24:05.187Z,984.50
2023-09-23T08:25:05.152Z,984.53
2023-09-23T08:26:05.251Z,984.57
2023-09-23T08:27:05.162Z,984.53
2023-09-23T08:28:05.127Z,984.53
2023-09-23T08:29:05.205Z,984.62
2023-09-23T08:30:05.117Z,984.65
2023-09-23T08:31:05.087Z,984.66
2023-09-23T08:32:05.181Z,984.59
2023-09-23T08:33:05.173Z,984.61
2023-09-23T08:34:05.080Z,984.61
2023-09-23T08:35:05.115Z,984.63
2023-09-23T08:36:05.056Z,984.65
2023-09-23T08:37:05.029Z,984.60
2023-09-23T08:38:05.050Z,984.67
2023-09-23T08:39:05.001Z,984.66
2023-09-23T08:40:05.021Z,984.69
2023-09-23T08:41:04.990Z,984.61
2023-09-23T08:42:05.002Z,984.69
2023-09-23T08:43:05.054Z,984.62
2023-09-23T08:44:05.005Z,984.68
2023-09-23T08:45:04.953Z,984.71
2023-09-23T08:46:05.008Z,984.65
2023-09-23T08:47:04.936Z,984.67
2023-09-23T08:48:05.026Z,984.78
2023-09-23T08:49:04.903Z,984.77
2023-09-23T08:50:04.927Z,984.77
2023-09-23T08:51:04.866Z,984.77
2023-09-23T08:52:04.874Z,984.73
2023-09-23T08:53:04.872Z,984.75
2023-09-23T08:54:06.474Z,984.73
2023-09-23T08:55:04.821Z,984.77
2023-09-23T08:56:04.869Z,984.79
2023-09-23T08:57:04.893Z,984.79
2023-09-23T08:58:04.809Z,984.74
2023-09-23T08:59:04.838Z,984.82
2023-09-23T09:00:04.801Z,984.73
2023-09-23T09:01:04.782Z,984.79
2023-09-23T09:02:04.850Z,984.85
2023-09-23T09:03:04.839Z,984.80
2023-09-23T09:04:04.738Z,984.82
2023-09-23T09:05:04.818Z,984.78
2023-09-23T09:06:04.818Z,984.81
2023-09-23T09:07:04.699Z,984.85
2023-09-23T09:08:04.728Z,984.78
2023-09-23T09:09:04.675Z,984.82
2023-09-23T09:10:04.665Z,984.87
2023-09-23T09:11:04.714Z,984.82
2023-09-23T09:12:04.663Z,984.82
2023-09-23T09:13:04.626Z,984.85
2023-09-23T09:14:04.720Z,984.86
2023-09-23T09:15:04.640Z,984.88
2023-09-23T09:16:04.640Z,984.95
2023-09-23T09:17:04.639Z,984.92
2023-09-23T09:18:04.622Z,984.84
2023-09-23T09:19:04.570Z,984.89
2023-09-23T09:20:04.589Z,984.78
2023-09-23T09:21:04.559Z,984.80
2023-09-23T09:22:04.547Z,984.78
2023-09-23T09:23:04.553Z,984.84
2023-09-23T09:24:04.588Z,984.78
2023-09-23T09:25:04.521Z,984.83
2023-09-23T09:26:04.542Z,984.76
2023-09-23T09:27:04.515Z,984.74
2023-09-23T09:28:04.530Z,984.73
2023-09-23T09:29:04.731Z,984.77
2023-09-23T09:30:13.615Z,984.74
2023-09-23T09:31:05.469Z,984.62
2023-09-23T09:32:04.465Z,984.71
2023-09-23T09:33:04.463Z,984.66
2023-09-23T09:34:04.427Z,984.63
2023-09-23T09:35:04.463Z,984.75
2023-09-23T09:36:04.400Z,984.72
2023-09-23T09:37:04.383Z,984.67
2023-09-23T09:38:16.898Z,984.75
2023-09-23T09:39:05.431Z,984.70
2023-09-23T09:40:04.350Z,984.72
2023-09-23T09:41:04.347Z,984.73
2023-09-23T09:42:04.333Z,984.72
2023-09-23T09:43:04.331Z,984.68
2023-09-23T09:44:04.401Z,984.68
2023-09-23T09:45:04.298Z,984.70
2023-09-23T09:46:04.271Z,984.68
2023-09-23T09:47:04.463Z,984.71
2023-09-23T09:48:04.319Z,984.71
2023-09-23T09:49:04.275Z,984.66
2023-09-23T09:50:04.297Z,984.70
2023-09-23T09:51:04.221Z,984.67
2023-09-23T09:52:04.211Z,984.70
2023-09-23T09:53:04.242Z,984.75
2023-09-23T09:54:04.208Z,984.69
2023-09-23T09:55:04.207Z,984.74
2023-09-23T09:56:04.200Z,984.74
2023-09-23T09:57:04.167Z,984.64
2023-09-23T09:58:04.306Z,984.70
2023-09-23T09:59:04.199Z,984.61
2023-09-23T10:00:04.142Z,984.67
2023-09-23T10:01:04.161Z,984.71
2023-09-23T10:02:04.165Z,984.59
2023-09-23T10:03:04.221Z,984.61
2023-09-23T10:04:04.127Z,984.67
2023-09-23T10:05:04.112Z,984.64
2023-09-23T10:06:04.076Z,984.68
2023-09-23T10:07:04.084Z,984.82
2023-09-23T10:08:04.095Z,984.77
2023-09-23T10:09:04.048Z,984.71
2023-09-23T10:10:04.020Z,984.73
2023-09-23T10:11:04.125Z,984.75
2023-09-23T10:12:04.013Z,984.85
2023-09-23T10:13:03.987Z,984.78
2023-09-23T10:14:04.037Z,984.77
2023-09-23T10:15:03.970Z,984.73
2023-09-23T10:16:03.978Z,984.71
2023-09-23T10:17:04.045Z,984.71
2023-09-23T10:18:04.025Z,984.66
2023-09-23T10:19:04.064Z,984.70
2023-09-23T10:20:03.975Z,984.66
2023-09-23T10:21:03.937Z,984.67
2023-09-23T10:22:03.903Z,984.68
2023-09-23T10:23:03.929Z,984.66
2023-09-23T10:24:03.883Z,984.57
2023-09-23T10:25:03.881Z,984.68
2023-09-23T10:26:03.890Z,984.67
2023-09-23T10:27:03.853Z,984.69
2023-09-23T10:28:03.843Z,984.60
2023-09-23T10:29:03.857Z,984.69
2023-09-23T10:30:03.820Z,984.66
2023-09-23T10:31:04.161Z,984.70
2023-09-23T10:32:03.837Z,984.74
2023-09-23T10:33:03.808Z,984.71
2023-09-23T10:34:03.777Z,984.70
2023-09-23T10:35:03.804Z,984.67
2023-09-23T10:36:03.825Z,984.69
2023-09-23T10:37:03.766Z,984.77
2023-09-23T10:38:03.759Z,984.70
2023-09-23T10:39:03.736Z,984.70
2023-09-23T10:40:03.713Z,984.65
2023-09-23T10:41:03.764Z,984.66
2023-09-23T10:42:03.694Z,984.65
2023-09-23T10:43:03.694Z,984.76
2023-09-23T10:44:03.746Z,984.75
2023-09-23T10:45:03.656Z,984.76
2023-09-23T10:46:03.657Z,984.71
2023-09-23T10:47:03.652Z,984.77
2023-09-23T10:48:03.671Z,984.78
2023-09-23T10:49:03.610Z,984.73
2023-09-23T10:50:03.664Z,984.74
2023-09-23T10:51:03.602Z,984.80
2023-09-23T10:52:03.620Z,984.74
2023-09-23T10:53:03.659Z,984.81
2023-09-23T10:54:03.553Z,984.78
2023-09-23T10:55:03.527Z,984.77
2023-09-23T10:56:03.607Z,984.71
2023-09-23T10:57:03.782Z,984.78
2023-09-23T10:58:03.524Z,984.82
2023-09-23T10:59:03.517Z,984.81
2023-09-23T11:00:03.493Z,984.85
2023-09-23T11:01:03.497Z,984.77
2023-09-23T11:02:03.522Z,984.81
2023-09-23T11:03:03.581Z,984.75
2023-09-23T11:04:03.504Z,984.78
2023-09-23T11:05:03.487Z,984.84
2023-09-23T11:06:03.428Z,984.82
2023-09-23T11:07:03.440Z,984.78
2023-09-23T11:08:03.470Z,984.79
2023-09-23T11:09:03.409Z,984.77
2023-09-23T11:10:03.379Z,984.77
2023-09-23T11:11:03.403Z,984.71
2023-09-23T11:12:03.368Z,984.77
2023-09-23T11:13:03.370Z,984.76
2023-09-23T11:14:03.377Z,984.80
2023-09-23T11:15:03.351Z,984.75
2023-09-23T11:16:03.359Z,984.87
2023-09-23T11:17:03.343Z,984.85
2023-09-23T11:18:03.344Z,984.73
2023-09-23T11:19:03.306Z,984.74
2023-09-23T11:20:03.323Z,984.81
2023-09-23T11:21:03.345Z,984.78
2023-09-23T11:22:03.279Z,984.77
2023-09-23T11:23:03.458Z,984.77
2023-09-23T11:24:03.238Z,984.73
2023-09-23T11:25:03.240Z,984.74
2023-09-23T11:26:03.274Z,984.74
2023-09-23T11:27:03.221Z,984.73
2023-09-23T11:28:03.285Z,984.75
2023-09-23T11:29:03.210Z,984.75
2023-09-23T11:30:03.182Z,984.81
2023-09-23T11:31:03.156Z,984.78
2023-09-23T11:32:03.239Z,984.81
2023-09-23T11:33:03.210Z,984.80
2023-09-23T11:34:03.143Z,984.77
2023-09-23T11:35:03.148Z,984.77
2023-09-23T11:36:03.098Z,984.75
2023-09-23T11:37:03.099Z,984.74
2023-09-23T11:38:03.165Z,984.73
2023-09-23T11:39:03.068Z,984.71
2023-09-23T11:40:03.089Z,984.74
2023-09-23T11:41:03.079Z,984.67
2023-09-23T11:42:03.033Z,984.69
2023-09-23T11:43:03.023Z,984.65
2023-09-23T11:44:03.042Z,984.67
2023-09-23T11:45:03.019Z,984.73
2023-09-23T11:46:03.074Z,984.68
2023-09-23T11:47:03.025Z,984.67
2023-09-23T11:48:02.993Z,984.67
2023-09-23T11:49:02.979Z,984.63
2023-09-23T11:50:02.998Z,984.71
2023-09-23T11:51:02.954Z,984.77
2023-09-23T11:52:02.942Z,984.80
2023-09-23T11:53:02.956Z,984.73
2023-09-23T11:54:02.926Z,984.72
2023-09-23T11:55:02.945Z,984.72
2023-09-23T11:56:03.002Z,984.73
2023-09-23T11:57:02.886Z,984.76
2023-09-23T11:58:02.877Z,984.77
2023-09-23T11:59:08.388Z,984.80
2023-09-23T12:00:03.868Z,984.72
2023-09-23T12:01:02.902Z,984.77
2023-09-23T12:02:02.850Z,984.82
2023-09-23T12:03:02.939Z,984.73
2023-09-23T12:04:02.987Z,984.78
2023-09-23T12:05:03.037Z,984.75
2023-09-23T12:06:02.864Z,984.77
2023-09-23T12:07:02.788Z,984.68
2023-09-23T12:08:02.863Z,984.72
2023-09-23T12:09:02.782Z,984.63
2023-09-23T12:10:02.801Z,984.69
2023-09-23T12:11:02.769Z,984.61
2023-09-23T12:12:02.809Z,984.59
2023-09-23T12:13:02.725Z,984.69
2023-09-23T12:14:02.741Z,984.54
2023-09-23T12:15:02.706Z,984.63
2023-09-23T12:16:02.792Z,984.64
2023-09-23T12:17:02.762Z,984.54
2023-09-23T12:18:02.724Z,984.42
2023-09-23T12:19:02.668Z,984.51
2023-09-23T12:20:02.730Z,984.46
2023-09-23T12:21:02.651Z,984.52
2023-09-23T12:22:02.630Z,984.54
2023-09-23T12:23:02.750Z,984.55
2023-09-23T12:24:02.596Z,984.58
2023-09-23T12:25:02.631Z,984.58
2023-09-23T12:26:02.644Z,984.61
2023-09-23T12:27:02.580Z,984.56
2023-09-23T12:28:02.610Z,984.58